sensor_id;sensor_type;location;lat;lon;timestamp;P1;durP1;ratioP1;P2;durP2;ratioP2
10465;SDS011;5280;42.600;23.556;2022-08-21T00:00:44;10.07;;;7.77;;
10465;SDS011;5280;42.600;23.556;2022-08-21T00:03:15;10.47;;;7.87;;
10465;SDS011;5280;42.600;23.556;2022-08-21T00:05:49;8.53;;;7.70;;
10465;SDS011;5280;42.600;23.556;2022-08-21T00:08:17;8.83;;;7.97;;
10465;SDS011;5280;42.600;23.556;2022-08-21T00:10:45;8.43;;;7.63;;
10465;SDS011;5280;42.600;23.556;2022-08-21T00:13:13;8.50;;;7.67;;
10465;SDS011;5280;42.600;23.556;2022-08-21T00:15:41;7.93;;;6.77;;
10465;SDS011;5280;42.600;23.556;2022-08-21T00:18:10;11.27;;;8.00;;
10465;SDS011;5280;42.600;23.556;2022-08-21T00:20:38;9.30;;;7.23;;
10465;SDS011;5280;42.600;23.556;2022-08-21T00:23:07;9.27;;;7.03;;
10465;SDS011;5280;42.600;23.556;2022-08-21T00:25:34;11.07;;;7.70;;
10465;SDS011;5280;42.600;23.556;2022-08-21T00:28:02;12.80;;;7.73;;
10465;SDS011;5280;42.600;23.556;2022-08-21T00:30:30;10.13;;;7.40;;
10465;SDS011;5280;42.600;23.556;2022-08-21T00:32:57;13.33;;;7.53;;
10465;SDS011;5280;42.600;23.556;2022-08-21T00:35:25;13.80;;;7.67;;
10465;SDS011;5280;42.600;23.556;2022-08-21T00:37:56;11.73;;;7.97;;
10465;SDS011;5280;42.600;23.556;2022-08-21T00:40:26;12.53;;;8.20;;
10465;SDS011;5280;42.600;23.556;2022-08-21T00:42:54;12.00;;;8.63;;
10465;SDS011;5280;42.600;23.556;2022-08-21T00:45:25;11.93;;;9.07;;
10465;SDS011;5280;42.600;23.556;2022-08-21T00:47:53;12.53;;;9.37;;
10465;SDS011;5280;42.600;23.556;2022-08-21T00:50:20;11.60;;;8.90;;
10465;SDS011;5280;42.600;23.556;2022-08-21T00:52:48;11.33;;;8.83;;
10465;SDS011;5280;42.600;23.556;2022-08-21T00:55:19;10.87;;;9.40;;
10465;SDS011;5280;42.600;23.556;2022-08-21T00:57:51;12.73;;;8.60;;
10465;SDS011;5280;42.600;23.556;2022-08-21T01:00:22;17.73;;;8.87;;
10465;SDS011;5280;42.600;23.556;2022-08-21T01:02:54;10.73;;;8.60;;
10465;SDS011;5280;42.600;23.556;2022-08-21T01:05:21;8.83;;;7.93;;
10465;SDS011;5280;42.600;23.556;2022-08-21T01:07:48;9.47;;;8.57;;
10465;SDS011;5280;42.600;23.556;2022-08-21T01:10:15;8.47;;;7.53;;
10465;SDS011;5280;42.600;23.556;2022-08-21T01:12:45;11.77;;;8.03;;
10465;SDS011;5280;42.600;23.556;2022-08-21T01:15:12;8.50;;;7.50;;
10465;SDS011;5280;42.600;23.556;2022-08-21T01:17:41;10.37;;;8.13;;
10465;SDS011;5280;42.600;23.556;2022-08-21T01:20:09;12.03;;;8.00;;
10465;SDS011;5280;42.600;23.556;2022-08-21T01:22:39;10.17;;;7.27;;
10465;SDS011;5280;42.600;23.556;2022-08-21T01:25:06;12.27;;;8.13;;
10465;SDS011;5280;42.600;23.556;2022-08-21T01:27:35;7.90;;;7.20;;
10465;SDS011;5280;42.600;23.556;2022-08-21T01:30:04;8.47;;;6.97;;
10465;SDS011;5280;42.600;23.556;2022-08-21T01:32:36;7.97;;;6.97;;
10465;SDS011;5280;42.600;23.556;2022-08-21T01:35:03;8.60;;;6.07;;
10465;SDS011;5280;42.600;23.556;2022-08-21T01:37:31;11.90;;;5.73;;
10465;SDS011;5280;42.600;23.556;2022-08-21T01:40:01;6.37;;;4.97;;
10465;SDS011;5280;42.600;23.556;2022-08-21T01:42:29;6.13;;;3.90;;
10465;SDS011;5280;42.600;23.556;2022-08-21T01:44:55;6.30;;;3.77;;
10465;SDS011;5280;42.600;23.556;2022-08-21T01:47:22;10.73;;;4.17;;
10465;SDS011;5280;42.600;23.556;2022-08-21T01:49:49;6.73;;;3.13;;
10465;SDS011;5280;42.600;23.556;2022-08-21T01:52:16;3.83;;;2.50;;
10465;SDS011;5280;42.600;23.556;2022-08-21T01:54:43;5.50;;;2.57;;
10465;SDS011;5280;42.600;23.556;2022-08-21T01:57:12;5.90;;;3.10;;
10465;SDS011;5280;42.600;23.556;2022-08-21T01:59:39;3.50;;;2.40;;
10465;SDS011;5280;42.600;23.556;2022-08-21T02:02:07;8.40;;;2.80;;
10465;SDS011;5280;42.600;23.556;2022-08-21T02:04:33;6.50;;;2.80;;
10465;SDS011;5280;42.600;23.556;2022-08-21T02:07:01;5.97;;;2.80;;
10465;SDS011;5280;42.600;23.556;2022-08-21T02:09:29;4.40;;;2.43;;
10465;SDS011;5280;42.600;23.556;2022-08-21T02:11:58;3.50;;;2.10;;
10465;SDS011;5280;42.600;23.556;2022-08-21T02:14:27;4.57;;;2.50;;
10465;SDS011;5280;42.600;23.556;2022-08-21T02:16:54;5.97;;;2.50;;
10465;SDS011;5280;42.600;23.556;2022-08-21T02:19:20;11.30;;;2.50;;
10465;SDS011;5280;42.600;23.556;2022-08-21T02:21:47;8.93;;;2.40;;
10465;SDS011;5280;42.600;23.556;2022-08-21T02:24:14;7.93;;;2.60;;
10465;SDS011;5280;42.600;23.556;2022-08-21T02:26:41;7.30;;;2.40;;
10465;SDS011;5280;42.600;23.556;2022-08-21T02:29:08;6.77;;;2.67;;
10465;SDS011;5280;42.600;23.556;2022-08-21T02:31:36;7.33;;;2.67;;
10465;SDS011;5280;42.600;23.556;2022-08-21T02:34:03;4.93;;;2.47;;
10465;SDS011;5280;42.600;23.556;2022-08-21T02:36:31;5.43;;;3.00;;
10465;SDS011;5280;42.600;23.556;2022-08-21T02:38:59;10.40;;;2.80;;
10465;SDS011;5280;42.600;23.556;2022-08-21T02:41:25;6.63;;;2.67;;
10465;SDS011;5280;42.600;23.556;2022-08-21T02:43:52;6.70;;;2.60;;
10465;SDS011;5280;42.600;23.556;2022-08-21T02:46:19;3.90;;;2.40;;
10465;SDS011;5280;42.600;23.556;2022-08-21T02:48:48;8.23;;;3.27;;
10465;SDS011;5280;42.600;23.556;2022-08-21T02:51:16;6.83;;;3.10;;
10465;SDS011;5280;42.600;23.556;2022-08-21T02:53:45;4.00;;;2.60;;
10465;SDS011;5280;42.600;23.556;2022-08-21T02:56:13;4.67;;;3.00;;
10465;SDS011;5280;42.600;23.556;2022-08-21T02:58:43;8.30;;;2.93;;
10465;SDS011;5280;42.600;23.556;2022-08-21T03:01:12;7.23;;;2.63;;
10465;SDS011;5280;42.600;23.556;2022-08-21T03:03:40;4.47;;;2.70;;
10465;SDS011;5280;42.600;23.556;2022-08-21T03:06:11;5.33;;;2.63;;
10465;SDS011;5280;42.600;23.556;2022-08-21T03:08:40;4.20;;;2.67;;
10465;SDS011;5280;42.600;23.556;2022-08-21T03:11:10;8.37;;;2.63;;
10465;SDS011;5280;42.600;23.556;2022-08-21T03:13:37;6.27;;;2.80;;
10465;SDS011;5280;42.600;23.556;2022-08-21T03:16:05;6.73;;;2.80;;
10465;SDS011;5280;42.600;23.556;2022-08-21T03:18:32;5.10;;;2.70;;
10465;SDS011;5280;42.600;23.556;2022-08-21T03:21:00;7.60;;;3.23;;
10465;SDS011;5280;42.600;23.556;2022-08-21T03:23:29;5.17;;;2.67;;
10465;SDS011;5280;42.600;23.556;2022-08-21T03:25:57;6.93;;;2.80;;
10465;SDS011;5280;42.600;23.556;2022-08-21T03:28:24;4.63;;;2.50;;
10465;SDS011;5280;42.600;23.556;2022-08-21T03:30:57;10.00;;;3.10;;
10465;SDS011;5280;42.600;23.556;2022-08-21T03:33:24;11.13;;;3.00;;
10465;SDS011;5280;42.600;23.556;2022-08-21T03:35:54;8.33;;;3.17;;
10465;SDS011;5280;42.600;23.556;2022-08-21T03:38:26;3.43;;;2.80;;
10465;SDS011;5280;42.600;23.556;2022-08-21T03:40:55;7.47;;;2.90;;
10465;SDS011;5280;42.600;23.556;2022-08-21T03:43:22;10.13;;;3.57;;
10465;SDS011;5280;42.600;23.556;2022-08-21T03:45:51;9.97;;;3.10;;
10465;SDS011;5280;42.600;23.556;2022-08-21T03:48:20;11.53;;;3.20;;
10465;SDS011;5280;42.600;23.556;2022-08-21T03:50:48;8.83;;;2.87;;
10465;SDS011;5280;42.600;23.556;2022-08-21T03:53:18;3.03;;;2.37;;
10465;SDS011;5280;42.600;23.556;2022-08-21T03:55:45;6.43;;;3.33;;
10465;SDS011;5280;42.600;23.556;2022-08-21T03:58:15;6.90;;;3.43;;
10465;SDS011;5280;42.600;23.556;2022-08-21T04:00:44;7.80;;;3.07;;
10465;SDS011;5280;42.600;23.556;2022-08-21T04:03:12;7.67;;;2.90;;
10465;SDS011;5280;42.600;23.556;2022-08-21T04:05:39;6.47;;;3.43;;
10465;SDS011;5280;42.600;23.556;2022-08-21T04:08:06;7.53;;;2.90;;
10465;SDS011;5280;42.600;23.556;2022-08-21T04:10:34;3.30;;;2.47;;
10465;SDS011;5280;42.600;23.556;2022-08-21T04:13:03;5.47;;;2.57;;
10465;SDS011;5280;42.600;23.556;2022-08-21T04:15:32;7.77;;;2.80;;
10465;SDS011;5280;42.600;23.556;2022-08-21T04:18:00;7.27;;;3.10;;
10465;SDS011;5280;42.600;23.556;2022-08-21T04:20:27;4.67;;;2.70;;
10465;SDS011;5280;42.600;23.556;2022-08-21T04:22:54;7.93;;;2.80;;
10465;SDS011;5280;42.600;23.556;2022-08-21T04:25:22;6.10;;;3.00;;
10465;SDS011;5280;42.600;23.556;2022-08-21T04:27:50;7.83;;;2.70;;
10465;SDS011;5280;42.600;23.556;2022-08-21T04:30:17;5.17;;;2.70;;
10465;SDS011;5280;42.600;23.556;2022-08-21T04:32:47;17.03;;;3.30;;
10465;SDS011;5280;42.600;23.556;2022-08-21T04:35:16;4.83;;;2.67;;
10465;SDS011;5280;42.600;23.556;2022-08-21T04:37:44;5.97;;;2.50;;
10465;SDS011;5280;42.600;23.556;2022-08-21T04:40:12;6.40;;;3.00;;
10465;SDS011;5280;42.600;23.556;2022-08-21T04:42:41;6.10;;;2.60;;
10465;SDS011;5280;42.600;23.556;2022-08-21T04:45:15;7.30;;;3.03;;
10465;SDS011;5280;42.600;23.556;2022-08-21T04:47:46;4.43;;;2.90;;
10465;SDS011;5280;42.600;23.556;2022-08-21T04:50:14;10.23;;;3.30;;
10465;SDS011;5280;42.600;23.556;2022-08-21T04:52:41;4.53;;;2.77;;
10465;SDS011;5280;42.600;23.556;2022-08-21T04:55:09;4.03;;;2.87;;
10465;SDS011;5280;42.600;23.556;2022-08-21T04:57:36;8.37;;;2.97;;
10465;SDS011;5280;42.600;23.556;2022-08-21T05:00:04;5.93;;;3.00;;
10465;SDS011;5280;42.600;23.556;2022-08-21T05:02:32;3.83;;;2.90;;
10465;SDS011;5280;42.600;23.556;2022-08-21T05:05:00;7.53;;;2.80;;
10465;SDS011;5280;42.600;23.556;2022-08-21T05:07:28;5.70;;;2.70;;
10465;SDS011;5280;42.600;23.556;2022-08-21T05:09:58;9.93;;;3.07;;
10465;SDS011;5280;42.600;23.556;2022-08-21T05:12:26;6.70;;;3.20;;
10465;SDS011;5280;42.600;23.556;2022-08-21T05:14:53;10.27;;;3.57;;
10465;SDS011;5280;42.600;23.556;2022-08-21T05:17:20;11.93;;;3.10;;
10465;SDS011;5280;42.600;23.556;2022-08-21T05:19:48;12.83;;;3.30;;
10465;SDS011;5280;42.600;23.556;2022-08-21T05:22:20;9.47;;;3.33;;
10465;SDS011;5280;42.600;23.556;2022-08-21T05:24:47;7.10;;;3.23;;
10465;SDS011;5280;42.600;23.556;2022-08-21T05:27:14;10.47;;;3.37;;
10465;SDS011;5280;42.600;23.556;2022-08-21T05:29:41;14.80;;;3.20;;
10465;SDS011;5280;42.600;23.556;2022-08-21T05:32:09;10.47;;;3.00;;
10465;SDS011;5280;42.600;23.556;2022-08-21T05:34:36;9.10;;;3.03;;
10465;SDS011;5280;42.600;23.556;2022-08-21T05:37:03;6.93;;;2.90;;
10465;SDS011;5280;42.600;23.556;2022-08-21T05:39:34;6.67;;;3.03;;
10465;SDS011;5280;42.600;23.556;2022-08-21T05:42:00;7.77;;;2.90;;
10465;SDS011;5280;42.600;23.556;2022-08-21T05:44:27;10.23;;;3.40;;
10465;SDS011;5280;42.600;23.556;2022-08-21T05:46:54;4.00;;;2.67;;
10465;SDS011;5280;42.600;23.556;2022-08-21T05:49:21;4.43;;;2.50;;
10465;SDS011;5280;42.600;23.556;2022-08-21T05:51:47;7.80;;;2.73;;
10465;SDS011;5280;42.600;23.556;2022-08-21T05:54:14;7.10;;;2.90;;
10465;SDS011;5280;42.600;23.556;2022-08-21T05:56:42;7.70;;;2.57;;
10465;SDS011;5280;42.600;23.556;2022-08-21T05:59:09;6.70;;;2.90;;
10465;SDS011;5280;42.600;23.556;2022-08-21T06:01:38;8.77;;;3.03;;
10465;SDS011;5280;42.600;23.556;2022-08-21T06:04:06;8.70;;;3.00;;
10465;SDS011;5280;42.600;23.556;2022-08-21T06:06:33;5.53;;;3.00;;
10465;SDS011;5280;42.600;23.556;2022-08-21T06:09:00;6.47;;;2.47;;
10465;SDS011;5280;42.600;23.556;2022-08-21T06:11:28;8.37;;;2.80;;
10465;SDS011;5280;42.600;23.556;2022-08-21T06:13:56;7.97;;;3.07;;
10465;SDS011;5280;42.600;23.556;2022-08-21T06:16:24;8.43;;;3.30;;
10465;SDS011;5280;42.600;23.556;2022-08-21T06:18:51;6.47;;;2.73;;
10465;SDS011;5280;42.600;23.556;2022-08-21T06:21:18;13.30;;;2.97;;
10465;SDS011;5280;42.600;23.556;2022-08-21T06:23:45;6.37;;;2.50;;
10465;SDS011;5280;42.600;23.556;2022-08-21T06:26:13;5.77;;;3.10;;
10465;SDS011;5280;42.600;23.556;2022-08-21T06:28:43;5.00;;;3.00;;
10465;SDS011;5280;42.600;23.556;2022-08-21T06:31:12;5.17;;;3.20;;
10465;SDS011;5280;42.600;23.556;2022-08-21T06:33:40;8.33;;;3.30;;
10465;SDS011;5280;42.600;23.556;2022-08-21T06:36:07;7.80;;;3.87;;
10465;SDS011;5280;42.600;23.556;2022-08-21T06:38:34;8.77;;;3.60;;
10465;SDS011;5280;42.600;23.556;2022-08-21T06:41:01;5.80;;;3.23;;
10465;SDS011;5280;42.600;23.556;2022-08-21T06:43:28;4.13;;;3.23;;
10465;SDS011;5280;42.600;23.556;2022-08-21T06:46:09;5.13;;;2.70;;
10465;SDS011;5280;42.600;23.556;2022-08-21T06:48:37;4.83;;;3.30;;
10465;SDS011;5280;42.600;23.556;2022-08-21T06:51:18;3.90;;;3.20;;
10465;SDS011;5280;42.600;23.556;2022-08-21T07:01:04;6.97;;;3.10;;
10465;SDS011;5280;42.600;23.556;2022-08-21T12:49:11;5.40;;;4.53;;
10465;SDS011;5280;42.600;23.556;2022-08-21T14:09:53;9.47;;;5.20;;
10465;SDS011;5280;42.600;23.556;2022-08-21T14:12:26;7.10;;;5.10;;
10465;SDS011;5280;42.600;23.556;2022-08-21T14:14:56;7.83;;;5.57;;
10465;SDS011;5280;42.600;23.556;2022-08-21T14:17:28;5.20;;;4.70;;
10465;SDS011;5280;42.600;23.556;2022-08-21T14:20:04;6.57;;;5.73;;
10465;SDS011;5280;42.600;23.556;2022-08-21T14:22:36;7.90;;;5.50;;
10465;SDS011;5280;42.600;23.556;2022-08-21T14:25:06;9.40;;;5.50;;
10465;SDS011;5280;42.600;23.556;2022-08-21T14:27:38;9.37;;;5.37;;
10465;SDS011;5280;42.600;23.556;2022-08-21T14:30:09;6.47;;;5.60;;
10465;SDS011;5280;42.600;23.556;2022-08-21T14:32:42;7.37;;;5.23;;
10465;SDS011;5280;42.600;23.556;2022-08-21T14:35:11;11.07;;;5.37;;
10465;SDS011;5280;42.600;23.556;2022-08-21T14:37:41;8.50;;;5.20;;
10465;SDS011;5280;42.600;23.556;2022-08-21T14:40:10;9.20;;;5.13;;
10465;SDS011;5280;42.600;23.556;2022-08-21T14:42:37;10.30;;;5.37;;
10465;SDS011;5280;42.600;23.556;2022-08-21T14:45:07;12.03;;;5.13;;
10465;SDS011;5280;42.600;23.556;2022-08-21T14:47:39;8.73;;;5.00;;
10465;SDS011;5280;42.600;23.556;2022-08-21T14:50:08;14.77;;;5.53;;
10465;SDS011;5280;42.600;23.556;2022-08-21T14:52:35;11.73;;;5.40;;
10465;SDS011;5280;42.600;23.556;2022-08-21T14:55:03;7.10;;;5.37;;
10465;SDS011;5280;42.600;23.556;2022-08-21T14:57:32;9.07;;;5.30;;
10465;SDS011;5280;42.600;23.556;2022-08-21T14:59:59;5.90;;;4.90;;
10465;SDS011;5280;42.600;23.556;2022-08-21T15:02:26;11.23;;;5.33;;
10465;SDS011;5280;42.600;23.556;2022-08-21T15:04:54;11.33;;;4.77;;
10465;SDS011;5280;42.600;23.556;2022-08-21T15:07:30;12.50;;;4.77;;
10465;SDS011;5280;42.600;23.556;2022-08-21T15:09:57;11.63;;;4.93;;
10465;SDS011;5280;42.600;23.556;2022-08-21T15:12:23;8.40;;;4.47;;
10465;SDS011;5280;42.600;23.556;2022-08-21T15:14:52;5.90;;;4.60;;
10465;SDS011;5280;42.600;23.556;2022-08-21T15:17:19;7.90;;;4.73;;
10465;SDS011;5280;42.600;23.556;2022-08-21T15:19:46;6.17;;;4.57;;
10465;SDS011;5280;42.600;23.556;2022-08-21T15:22:13;8.63;;;4.70;;
10465;SDS011;5280;42.600;23.556;2022-08-21T15:24:40;9.40;;;4.70;;
10465;SDS011;5280;42.600;23.556;2022-08-21T15:27:08;6.57;;;4.13;;
10465;SDS011;5280;42.600;23.556;2022-08-21T15:29:36;6.87;;;4.83;;
10465;SDS011;5280;42.600;23.556;2022-08-21T15:32:15;8.47;;;4.97;;
10465;SDS011;5280;42.600;23.556;2022-08-21T15:34:43;8.40;;;4.73;;
10465;SDS011;5280;42.600;23.556;2022-08-21T15:37:10;9.30;;;4.70;;
10465;SDS011;5280;42.600;23.556;2022-08-21T15:39:37;7.83;;;4.77;;
10465;SDS011;5280;42.600;23.556;2022-08-21T15:42:04;9.93;;;4.90;;
10465;SDS011;5280;42.600;23.556;2022-08-21T15:44:32;8.30;;;4.70;;
10465;SDS011;5280;42.600;23.556;2022-08-21T15:46:59;13.63;;;5.20;;
10465;SDS011;5280;42.600;23.556;2022-08-21T15:49:27;9.63;;;5.07;;
10465;SDS011;5280;42.600;23.556;2022-08-21T15:51:54;15.20;;;5.07;;
10465;SDS011;5280;42.600;23.556;2022-08-21T15:54:21;9.63;;;4.80;;
10465;SDS011;5280;42.600;23.556;2022-08-21T15:56:49;11.43;;;5.17;;
10465;SDS011;5280;42.600;23.556;2022-08-21T15:59:18;13.00;;;5.53;;
10465;SDS011;5280;42.600;23.556;2022-08-21T16:01:47;14.67;;;5.23;;
10465;SDS011;5280;42.600;23.556;2022-08-21T16:04:18;14.30;;;5.33;;
10465;SDS011;5280;42.600;23.556;2022-08-21T16:06:49;13.97;;;4.60;;
10465;SDS011;5280;42.600;23.556;2022-08-21T16:09:16;7.30;;;4.93;;
10465;SDS011;5280;42.600;23.556;2022-08-21T16:11:43;7.33;;;4.77;;
10465;SDS011;5280;42.600;23.556;2022-08-21T16:14:11;9.80;;;4.70;;
10465;SDS011;5280;42.600;23.556;2022-08-21T16:16:38;12.73;;;5.57;;
10465;SDS011;5280;42.600;23.556;2022-08-21T16:19:05;8.30;;;4.70;;
10465;SDS011;5280;42.600;23.556;2022-08-21T16:21:35;13.07;;;5.00;;
10465;SDS011;5280;42.600;23.556;2022-08-21T16:24:04;12.57;;;5.60;;
10465;SDS011;5280;42.600;23.556;2022-08-21T16:26:31;10.10;;;5.70;;
10465;SDS011;5280;42.600;23.556;2022-08-21T16:28:58;9.57;;;4.97;;
10465;SDS011;5280;42.600;23.556;2022-08-21T16:31:27;5.93;;;5.00;;
10465;SDS011;5280;42.600;23.556;2022-08-21T16:33:55;7.60;;;5.70;;
10465;SDS011;5280;42.600;23.556;2022-08-21T16:36:22;8.47;;;6.03;;
10465;SDS011;5280;42.600;23.556;2022-08-21T16:38:50;14.93;;;6.53;;
10465;SDS011;5280;42.600;23.556;2022-08-21T16:41:20;12.03;;;6.33;;
10465;SDS011;5280;42.600;23.556;2022-08-21T16:43:49;8.40;;;5.57;;
10465;SDS011;5280;42.600;23.556;2022-08-21T16:46:17;8.33;;;5.40;;
10465;SDS011;5280;42.600;23.556;2022-08-21T16:48:45;8.27;;;5.77;;
10465;SDS011;5280;42.600;23.556;2022-08-21T16:51:12;11.67;;;6.23;;
10465;SDS011;5280;42.600;23.556;2022-08-21T16:53:40;8.47;;;6.00;;
10465;SDS011;5280;42.600;23.556;2022-08-21T16:56:07;7.07;;;6.30;;
10465;SDS011;5280;42.600;23.556;2022-08-21T16:58:38;12.87;;;6.93;;
10465;SDS011;5280;42.600;23.556;2022-08-21T17:01:09;12.53;;;6.13;;
10465;SDS011;5280;42.600;23.556;2022-08-21T17:03:39;8.17;;;6.20;;
10465;SDS011;5280;42.600;23.556;2022-08-21T17:06:10;8.03;;;5.90;;
10465;SDS011;5280;42.600;23.556;2022-08-21T17:08:37;9.77;;;5.57;;
10465;SDS011;5280;42.600;23.556;2022-08-21T17:11:05;9.67;;;5.73;;
10465;SDS011;5280;42.600;23.556;2022-08-21T17:13:34;15.03;;;6.33;;
10465;SDS011;5280;42.600;23.556;2022-08-21T17:16:02;11.70;;;6.30;;
10465;SDS011;5280;42.600;23.556;2022-08-21T17:18:29;12.00;;;5.23;;
10465;SDS011;5280;42.600;23.556;2022-08-21T17:20:57;10.30;;;5.93;;
10465;SDS011;5280;42.600;23.556;2022-08-21T17:23:24;16.87;;;6.57;;
10465;SDS011;5280;42.600;23.556;2022-08-21T17:25:51;13.57;;;5.70;;
10465;SDS011;5280;42.600;23.556;2022-08-21T17:28:21;8.83;;;5.30;;
10465;SDS011;5280;42.600;23.556;2022-08-21T17:30:51;13.67;;;5.90;;
10465;SDS011;5280;42.600;23.556;2022-08-21T17:33:22;12.87;;;5.87;;
10465;SDS011;5280;42.600;23.556;2022-08-21T17:35:50;11.37;;;6.23;;
10465;SDS011;5280;42.600;23.556;2022-08-21T17:38:17;17.07;;;6.60;;
10465;SDS011;5280;42.600;23.556;2022-08-21T17:40:44;19.80;;;6.00;;
10465;SDS011;5280;42.600;23.556;2022-08-21T17:43:12;18.40;;;5.77;;
10465;SDS011;5280;42.600;23.556;2022-08-21T17:45:39;9.10;;;6.03;;
10465;SDS011;5280;42.600;23.556;2022-08-21T17:48:07;15.43;;;5.97;;
10465;SDS011;5280;42.600;23.556;2022-08-21T17:50:36;11.87;;;6.53;;
10465;SDS011;5280;42.600;23.556;2022-08-21T17:53:03;9.60;;;5.80;;
10465;SDS011;5280;42.600;23.556;2022-08-21T17:55:30;16.47;;;6.27;;
10465;SDS011;5280;42.600;23.556;2022-08-21T17:57:58;13.47;;;6.23;;
10465;SDS011;5280;42.600;23.556;2022-08-21T18:00:29;12.47;;;6.10;;
10465;SDS011;5280;42.600;23.556;2022-08-21T18:03:03;11.00;;;6.40;;
10465;SDS011;5280;42.600;23.556;2022-08-21T18:05:38;14.97;;;6.17;;
10465;SDS011;5280;42.600;23.556;2022-08-21T18:08:05;6.97;;;5.50;;
10465;SDS011;5280;42.600;23.556;2022-08-21T18:10:32;10.20;;;6.10;;
10465;SDS011;5280;42.600;23.556;2022-08-21T18:12:59;11.13;;;5.50;;
10465;SDS011;5280;42.600;23.556;2022-08-21T18:15:30;18.30;;;6.43;;
10465;SDS011;5280;42.600;23.556;2022-08-21T18:17:58;8.07;;;5.53;;
10465;SDS011;5280;42.600;23.556;2022-08-21T18:20:25;10.93;;;5.50;;
10465;SDS011;5280;42.600;23.556;2022-08-21T18:22:55;14.87;;;6.77;;
10465;SDS011;5280;42.600;23.556;2022-08-21T18:25:23;13.17;;;6.20;;
10465;SDS011;5280;42.600;23.556;2022-08-21T18:27:55;13.73;;;5.87;;
10465;SDS011;5280;42.600;23.556;2022-08-21T18:30:22;13.53;;;5.17;;
10465;SDS011;5280;42.600;23.556;2022-08-21T18:33:01;12.57;;;5.73;;
10465;SDS011;5280;42.600;23.556;2022-08-21T18:35:32;11.73;;;5.97;;
10465;SDS011;5280;42.600;23.556;2022-08-21T18:38:02;13.90;;;5.47;;
10465;SDS011;5280;42.600;23.556;2022-08-21T18:40:31;9.57;;;6.30;;
10465;SDS011;5280;42.600;23.556;2022-08-21T18:43:00;11.90;;;5.77;;
10465;SDS011;5280;42.600;23.556;2022-08-21T18:45:28;16.50;;;5.57;;
10465;SDS011;5280;42.600;23.556;2022-08-21T18:47:55;13.60;;;6.20;;
10465;SDS011;5280;42.600;23.556;2022-08-21T18:50:25;16.87;;;5.97;;
10465;SDS011;5280;42.600;23.556;2022-08-21T18:52:54;10.77;;;5.43;;
10465;SDS011;5280;42.600;23.556;2022-08-21T18:55:38;12.00;;;6.10;;
10465;SDS011;5280;42.600;23.556;2022-08-21T18:58:20;13.90;;;5.93;;
10465;SDS011;5280;42.600;23.556;2022-08-21T19:00:54;13.40;;;5.30;;
10465;SDS011;5280;42.600;23.556;2022-08-21T19:03:22;11.43;;;5.87;;
10465;SDS011;5280;42.600;23.556;2022-08-21T19:05:50;10.20;;;5.47;;
10465;SDS011;5280;42.600;23.556;2022-08-21T19:08:19;13.27;;;5.63;;
10465;SDS011;5280;42.600;23.556;2022-08-21T19:10:53;12.93;;;6.27;;
10465;SDS011;5280;42.600;23.556;2022-08-21T19:13:22;11.53;;;5.40;;
10465;SDS011;5280;42.600;23.556;2022-08-21T19:15:54;15.57;;;6.17;;
10465;SDS011;5280;42.600;23.556;2022-08-21T19:18:25;12.10;;;6.07;;
10465;SDS011;5280;42.600;23.556;2022-08-21T19:20:53;14.93;;;6.40;;
10465;SDS011;5280;42.600;23.556;2022-08-21T19:23:23;12.97;;;6.33;;
10465;SDS011;5280;42.600;23.556;2022-08-21T19:25:56;15.37;;;6.13;;
10465;SDS011;5280;42.600;23.556;2022-08-21T19:28:26;16.73;;;6.17;;
10465;SDS011;5280;42.600;23.556;2022-08-21T19:30:57;12.63;;;5.70;;
10465;SDS011;5280;42.600;23.556;2022-08-21T19:33:30;14.57;;;6.37;;
10465;SDS011;5280;42.600;23.556;2022-08-21T19:35:59;14.83;;;5.47;;
10465;SDS011;5280;42.600;23.556;2022-08-21T19:38:26;12.10;;;5.87;;
10465;SDS011;5280;42.600;23.556;2022-08-21T19:40:54;14.20;;;5.80;;
10465;SDS011;5280;42.600;23.556;2022-08-21T19:43:23;12.03;;;6.60;;
10465;SDS011;5280;42.600;23.556;2022-08-21T19:45:52;13.83;;;6.20;;
10465;SDS011;5280;42.600;23.556;2022-08-21T19:48:28;18.27;;;6.60;;
10465;SDS011;5280;42.600;23.556;2022-08-21T19:50:59;14.40;;;6.97;;
10465;SDS011;5280;42.600;23.556;2022-08-21T19:53:48;15.63;;;7.43;;
10465;SDS011;5280;42.600;23.556;2022-08-21T20:02:41;14.03;;;8.90;;
10465;SDS011;5280;42.600;23.556;2022-08-21T20:05:08;12.70;;;8.93;;
10465;SDS011;5280;42.600;23.556;2022-08-21T20:07:46;14.70;;;9.43;;
10465;SDS011;5280;42.600;23.556;2022-08-21T20:10:42;12.83;;;8.63;;
10465;SDS011;5280;42.600;23.556;2022-08-21T20:13:29;12.63;;;7.50;;
10465;SDS011;5280;42.600;23.556;2022-08-21T20:16:39;11.87;;;7.20;;
10465;SDS011;5280;42.600;23.556;2022-08-21T20:28:54;14.80;;;7.57;;
10465;SDS011;5280;42.600;23.556;2022-08-21T20:31:36;12.30;;;7.13;;
10465;SDS011;5280;42.600;23.556;2022-08-21T20:34:37;12.30;;;6.73;;
10465;SDS011;5280;42.600;23.556;2022-08-21T20:37:18;13.27;;;6.63;;
10465;SDS011;5280;42.600;23.556;2022-08-21T20:39:55;13.10;;;6.77;;
10465;SDS011;5280;42.600;23.556;2022-08-21T20:42:44;10.83;;;7.03;;
10465;SDS011;5280;42.600;23.556;2022-08-21T20:45:14;7.80;;;6.67;;
10465;SDS011;5280;42.600;23.556;2022-08-21T20:48:00;8.73;;;6.43;;
10465;SDS011;5280;42.600;23.556;2022-08-21T20:51:01;11.37;;;6.80;;
10465;SDS011;5280;42.600;23.556;2022-08-21T20:53:47;7.13;;;5.87;;
10465;SDS011;5280;42.600;23.556;2022-08-21T20:56:36;9.20;;;5.60;;
10465;SDS011;5280;42.600;23.556;2022-08-21T21:05:35;8.63;;;4.90;;
10465;SDS011;5280;42.600;23.556;2022-08-21T21:08:17;6.93;;;5.30;;
10465;SDS011;5280;42.600;23.556;2022-08-21T21:11:03;14.20;;;5.53;;
10465;SDS011;5280;42.600;23.556;2022-08-21T21:13:52;14.43;;;5.23;;
10465;SDS011;5280;42.600;23.556;2022-08-21T21:16:42;11.47;;;4.73;;
10465;SDS011;5280;42.600;23.556;2022-08-21T21:50:32;6.17;;;5.00;;
10465;SDS011;5280;42.600;23.556;2022-08-21T22:13:18;7.17;;;4.23;;
10465;SDS011;5280;42.600;23.556;2022-08-21T22:15:53;6.03;;;4.17;;
10465;SDS011;5280;42.600;23.556;2022-08-21T22:18:39;8.13;;;4.10;;
10465;SDS011;5280;42.600;23.556;2022-08-21T22:21:15;10.73;;;4.00;;
10465;SDS011;5280;42.600;23.556;2022-08-21T22:24:01;6.13;;;4.27;;
10465;SDS011;5280;42.600;23.556;2022-08-21T22:44:12;9.43;;;6.07;;
10465;SDS011;5280;42.600;23.556;2022-08-21T22:47:07;14.13;;;7.37;;
10465;SDS011;5280;42.600;23.556;2022-08-21T22:49:48;8.93;;;6.77;;
10465;SDS011;5280;42.600;23.556;2022-08-21T22:52:22;16.50;;;7.27;;
10465;SDS011;5280;42.600;23.556;2022-08-21T22:55:16;12.43;;;6.70;;
10465;SDS011;5280;42.600;23.556;2022-08-21T23:14:20;7.67;;;6.43;;
10465;SDS011;5280;42.600;23.556;2022-08-21T23:16:53;7.27;;;6.17;;
10465;SDS011;5280;42.600;23.556;2022-08-21T23:19:41;8.90;;;6.40;;
10465;SDS011;5280;42.600;23.556;2022-08-21T23:26:05;6.90;;;6.20;;
10465;SDS011;5280;42.600;23.556;2022-08-21T23:29:16;9.17;;;5.70;;
10465;SDS011;5280;42.600;23.556;2022-08-21T23:32:12;6.00;;;5.50;;
10465;SDS011;5280;42.600;23.556;2022-08-21T23:38:07;6.33;;;5.73;;
10465;SDS011;5280;42.600;23.556;2022-08-21T23:41:01;8.50;;;5.90;;
10465;SDS011;5280;42.600;23.556;2022-08-21T23:43:54;6.33;;;5.30;;
10465;SDS011;5280;42.600;23.556;2022-08-21T23:58:27;8.83;;;5.47;;
